createdAt,value
2017-09-14T00:02:23.757Z,17.90
2017-09-14T00:04:51.265Z,17.90
2017-09-14T00:07:18.787Z,18.00
2017-09-14T00:09:46.313Z,17.90
2017-09-14T00:12:14.604Z,17.80
2017-09-14T00:14:42.154Z,17.80
2017-09-14T00:17:09.689Z,17.90
2017-09-14T00:19:37.194Z,17.90
2017-09-14T00:22:04.717Z,17.90
2017-09-14T00:24:33.013Z,17.80
2017-09-14T00:27:01.302Z,17.90
2017-09-14T00:29:28.821Z,17.80
2017-09-14T00:31:56.341Z,17.90
2017-09-14T00:34:23.878Z,17.90
2017-09-14T00:36:51.444Z,17.90
2017-09-14T00:39:19.004Z,17.90
2017-09-14T00:41:46.581Z,17.90
2017-09-14T00:44:14.115Z,17.90
2017-09-14T00:46:41.721Z,18.00
2017-09-14T00:49:09.267Z,17.90
2017-09-14T00:51:36.803Z,17.90
2017-09-14T00:54:04.324Z,17.90
2017-09-14T00:56:32.651Z,18.00
2017-09-14T00:59:00.185Z,17.90
2017-09-14T01:01:28.487Z,17.90
2017-09-14T01:03:56.069Z,17.90
2017-09-14T01:06:23.683Z,18.00
2017-09-14T01:08:51.299Z,18.00
2017-09-14T01:11:18.963Z,18.00
2017-09-14T01:13:46.510Z,18.00
2017-09-14T01:16:14.346Z,17.90
2017-09-14T01:18:41.862Z,17.90
2017-09-14T01:21:09.445Z,17.90
2017-09-14T01:23:37.731Z,17.90
2017-09-14T01:26:05.315Z,17.80
2017-09-14T01:28:33.300Z,17.80
2017-09-14T01:31:00.861Z,17.80
2017-09-14T01:33:28.377Z,17.80
2017-09-14T01:35:56.684Z,17.80
2017-09-14T01:38:24.182Z,17.80
2017-09-14T01:40:51.708Z,17.80
2017-09-14T01:43:19.223Z,17.80
2017-09-14T01:45:46.777Z,17.80
2017-09-14T01:48:14.295Z,17.80
2017-09-14T01:50:41.814Z,17.80
2017-09-14T01:53:09.328Z,17.90
2017-09-14T01:55:36.853Z,17.90
2017-09-14T01:58:04.380Z,17.90
2017-09-14T02:00:31.916Z,17.90
2017-09-14T02:02:59.408Z,17.90
2017-09-14T02:05:26.936Z,17.90
2017-09-14T02:07:54.438Z,17.90
2017-09-14T02:10:22.728Z,17.90
2017-09-14T02:12:50.237Z,17.80
2017-09-14T02:15:17.780Z,17.90
2017-09-14T02:17:45.374Z,17.90
2017-09-14T02:20:12.920Z,17.90
2017-09-14T02:22:40.443Z,18.00
2017-09-14T02:25:07.984Z,17.90
2017-09-14T02:27:35.518Z,17.90
2017-09-14T02:30:03.061Z,17.60
2017-09-14T02:32:31.489Z,17.00
2017-09-14T02:34:59.030Z,16.20
2017-09-14T02:37:27.398Z,15.30
2017-09-14T02:39:54.939Z,15.10
2017-09-14T02:42:22.529Z,15.10
2017-09-14T02:44:50.842Z,14.70
2017-09-14T02:47:18.394Z,14.60
2017-09-14T02:49:45.913Z,14.60
2017-09-14T02:52:13.437Z,14.50
2017-09-14T02:54:40.944Z,14.40
2017-09-14T02:57:09.244Z,14.20
2017-09-14T02:59:37.518Z,14.20
2017-09-14T03:02:05.818Z,14.00
2017-09-14T03:04:33.316Z,13.90
2017-09-14T03:07:00.833Z,13.90
2017-09-14T03:09:28.349Z,13.80
2017-09-14T03:11:55.875Z,13.70
2017-09-14T03:14:23.381Z,13.70
2017-09-14T03:16:51.669Z,13.50
2017-09-14T03:19:19.173Z,13.30
2017-09-14T03:21:46.696Z,13.40
2017-09-14T03:24:14.188Z,13.40
2017-09-14T03:26:41.709Z,13.20
2017-09-14T03:29:09.218Z,13.10
2017-09-14T03:31:37.086Z,13.10
2017-09-14T03:34:04.653Z,13.10
2017-09-14T03:36:32.201Z,13.00
2017-09-14T03:38:59.989Z,13.00
2017-09-14T03:41:27.525Z,13.00
2017-09-14T03:43:55.058Z,13.00
2017-09-14T03:46:22.658Z,12.70
2017-09-14T03:48:51.195Z,12.40
2017-09-14T03:51:18.779Z,12.30
2017-09-14T03:53:46.384Z,12.30
2017-09-14T03:56:13.969Z,12.20
2017-09-14T03:58:41.500Z,12.10
2017-09-14T04:01:09.814Z,11.90
2017-09-14T04:03:37.341Z,11.70
2017-09-14T04:06:04.873Z,11.70
2017-09-14T04:08:32.406Z,11.80
2017-09-14T04:10:59.934Z,11.60
2017-09-14T04:13:28.210Z,11.60
2017-09-14T04:15:56.553Z,11.60
2017-09-14T04:18:24.053Z,11.50
2017-09-14T04:20:52.381Z,11.60
2017-09-14T04:23:19.918Z,11.50
2017-09-14T04:25:47.467Z,11.40
2017-09-14T04:28:14.997Z,11.30
2017-09-14T04:30:42.553Z,11.20
2017-09-14T04:33:10.093Z,11.20
2017-09-14T04:35:37.657Z,11.30
2017-09-14T04:38:05.178Z,11.20
2017-09-14T04:40:32.736Z,11.30
2017-09-14T04:43:00.277Z,11.40
2017-09-14T04:45:27.830Z,11.40
2017-09-14T04:47:56.101Z,11.40
2017-09-14T04:50:24.405Z,11.40
2017-09-14T04:52:51.932Z,11.30
2017-09-14T04:55:19.465Z,11.40
2017-09-14T04:57:46.970Z,11.20
2017-09-14T05:00:14.492Z,11.30
2017-09-14T05:02:41.988Z,11.30
2017-09-14T05:05:10.437Z,11.30
2017-09-14T05:07:37.937Z,11.30
2017-09-14T05:10:05.491Z,11.10
2017-09-14T05:12:32.992Z,11.00
2017-09-14T05:15:00.523Z,11.00
2017-09-14T05:17:28.021Z,11.00
2017-09-14T05:19:55.601Z,11.10
2017-09-14T05:22:23.898Z,11.20
2017-09-14T05:24:51.431Z,11.10
2017-09-14T05:27:19.721Z,11.30
2017-09-14T05:29:47.249Z,11.20
2017-09-14T05:32:14.754Z,11.10
2017-09-14T05:34:42.269Z,11.10
2017-09-14T05:37:09.761Z,11.10
2017-09-14T05:39:37.293Z,11.10
2017-09-14T05:42:05.556Z,10.80
2017-09-14T05:44:33.072Z,10.70
2017-09-14T05:47:04.310Z,10.90
2017-09-14T05:49:31.833Z,10.80
2017-09-14T05:52:00.106Z,10.80
2017-09-14T05:54:31.170Z,10.70
2017-09-14T05:56:59.436Z,11.00
2017-09-14T05:59:27.750Z,10.90
2017-09-14T06:01:55.258Z,10.90
2017-09-14T06:04:23.548Z,10.90
2017-09-14T06:06:51.082Z,10.80
2017-09-14T06:09:18.604Z,11.00
2017-09-14T06:11:46.124Z,11.10
2017-09-14T06:14:14.415Z,11.30
2017-09-14T06:16:41.924Z,11.30
2017-09-14T06:19:09.457Z,11.30
2017-09-14T06:21:36.961Z,11.20
2017-09-14T06:24:04.456Z,11.30
2017-09-14T06:26:31.979Z,11.40
2017-09-14T06:28:59.482Z,11.50
2017-09-14T06:31:27.014Z,11.60
2017-09-14T06:33:54.518Z,11.60
2017-09-14T06:36:22.043Z,11.60
2017-09-14T06:38:49.548Z,11.50
2017-09-14T06:41:17.085Z,11.50
2017-09-14T06:43:44.597Z,11.50
2017-09-14T06:46:12.900Z,11.50
2017-09-14T06:48:40.397Z,11.40
2017-09-14T06:51:07.928Z,11.70
2017-09-14T06:53:35.441Z,11.70
2017-09-14T06:56:03.751Z,11.60
2017-09-14T06:58:31.249Z,11.60
2017-09-14T07:00:58.786Z,11.60
2017-09-14T07:03:26.297Z,11.60
2017-09-14T07:05:53.826Z,11.50
2017-09-14T07:08:21.341Z,11.60
2017-09-14T07:10:48.872Z,11.60
2017-09-14T07:13:17.158Z,11.30
2017-09-14T07:15:44.700Z,11.20
2017-09-14T07:18:12.219Z,11.20
2017-09-14T07:20:39.754Z,11.10
2017-09-14T07:23:07.262Z,11.10
2017-09-14T07:25:34.795Z,11.20
2017-09-14T07:28:05.659Z,11.30
2017-09-14T07:30:33.195Z,11.50
2017-09-14T07:33:00.709Z,11.50
2017-09-14T07:35:31.686Z,11.50
2017-09-14T07:37:59.205Z,11.40
2017-09-14T07:40:26.737Z,11.40
2017-09-14T07:42:55.016Z,11.30
2017-09-14T07:45:23.323Z,11.20
2017-09-14T07:47:50.831Z,11.10
2017-09-14T07:50:18.369Z,11.20
2017-09-14T07:52:45.874Z,11.20
2017-09-14T07:55:14.173Z,11.50
2017-09-14T07:57:41.672Z,11.40
2017-09-14T08:00:09.205Z,11.60
2017-09-14T08:02:36.718Z,11.60
2017-09-14T08:05:05.021Z,11.80
2017-09-14T08:07:32.530Z,11.70
2017-09-14T08:10:00.063Z,11.90
2017-09-14T08:12:27.578Z,11.90
2017-09-14T08:14:55.882Z,11.70
2017-09-14T08:17:23.393Z,11.60
2017-09-14T08:19:50.936Z,11.60
2017-09-14T08:22:18.458Z,11.50
2017-09-14T08:24:46.000Z,11.50
2017-09-14T08:27:13.529Z,11.50
2017-09-14T08:29:41.063Z,11.30
2017-09-14T08:32:08.577Z,11.20
2017-09-14T08:34:36.122Z,11.20
2017-09-14T08:37:03.638Z,11.20
2017-09-14T08:39:34.222Z,11.30
2017-09-14T08:42:01.736Z,11.30
2017-09-14T08:44:29.281Z,11.20
2017-09-14T08:46:56.787Z,11.20
2017-09-14T08:49:25.082Z,11.30
2017-09-14T08:51:52.599Z,11.20
2017-09-14T08:54:20.152Z,11.40
2017-09-14T08:56:47.681Z,11.40
2017-09-14T08:59:15.277Z,11.40
2017-09-14T09:01:42.791Z,11.40
2017-09-14T09:04:10.318Z,11.20
2017-09-14T09:06:38.588Z,11.20
2017-09-14T09:09:06.889Z,11.20
2017-09-14T09:11:34.405Z,11.10
2017-09-14T09:14:01.932Z,11.20
2017-09-14T09:16:29.448Z,11.50
2017-09-14T09:18:56.979Z,11.70
2017-09-14T09:21:24.498Z,11.70
2017-09-14T09:23:52.028Z,11.60
2017-09-14T09:26:19.545Z,11.40
2017-09-14T09:28:47.073Z,11.30
2017-09-14T09:31:14.585Z,11.40
2017-09-14T09:33:42.126Z,11.40
2017-09-14T09:36:09.638Z,11.30
2017-09-14T09:38:37.172Z,11.30
2017-09-14T09:41:08.320Z,11.30
2017-09-14T09:43:35.852Z,11.40
2017-09-14T09:46:03.353Z,11.50
2017-09-14T09:48:30.904Z,11.50
2017-09-14T09:50:58.422Z,11.40
2017-09-14T09:53:25.961Z,11.40
2017-09-14T09:55:53.472Z,11.40
2017-09-14T09:58:20.993Z,11.30
2017-09-14T10:00:48.503Z,11.10
2017-09-14T10:03:16.039Z,11.20
2017-09-14T10:05:44.314Z,11.40
2017-09-14T10:08:11.851Z,11.30
2017-09-14T10:10:40.129Z,11.30
2017-09-14T10:13:07.672Z,11.20
2017-09-14T10:15:35.186Z,11.20
2017-09-14T10:18:02.709Z,11.20
2017-09-14T10:20:30.990Z,11.10
2017-09-14T10:22:59.294Z,11.10
2017-09-14T10:25:26.838Z,11.00
2017-09-14T10:27:54.369Z,11.00
2017-09-14T10:30:22.650Z,10.80
2017-09-14T10:32:50.178Z,10.70
2017-09-14T10:35:17.693Z,10.80
2017-09-14T10:37:45.230Z,11.00
2017-09-14T10:40:17.163Z,11.10
2017-09-14T10:42:44.686Z,11.00
2017-09-14T10:45:12.210Z,11.00
2017-09-14T10:47:40.498Z,11.20
2017-09-14T10:50:08.789Z,11.10
2017-09-14T10:52:36.303Z,11.00
2017-09-14T10:55:03.837Z,11.00
2017-09-14T10:57:31.343Z,10.90
2017-09-14T10:59:58.882Z,11.00
2017-09-14T11:02:26.392Z,11.10
2017-09-14T11:04:53.930Z,11.20
2017-09-14T11:07:21.445Z,11.30
2017-09-14T11:09:48.972Z,11.30
2017-09-14T11:12:16.485Z,11.30
2017-09-14T11:14:44.799Z,11.50
2017-09-14T11:17:12.302Z,11.40
2017-09-14T11:19:39.866Z,11.60
2017-09-14T11:22:07.382Z,11.60
2017-09-14T11:24:34.913Z,11.60
2017-09-14T11:27:02.422Z,11.80
2017-09-14T11:29:29.944Z,11.90
2017-09-14T11:31:57.446Z,11.80
2017-09-14T11:34:25.000Z,11.90
2017-09-14T11:36:52.514Z,11.80
2017-09-14T11:39:23.619Z,11.70
2017-09-14T11:41:51.128Z,11.90
2017-09-14T11:44:18.678Z,11.80
2017-09-14T11:46:46.198Z,11.60
2017-09-14T11:49:14.491Z,11.20
2017-09-14T11:51:42.031Z,11.10
2017-09-14T11:54:10.337Z,11.20
2017-09-14T11:56:37.844Z,11.10
2017-09-14T11:59:05.407Z,11.40
2017-09-14T12:01:32.937Z,11.50
2017-09-14T12:04:00.478Z,11.70
2017-09-14T12:06:27.993Z,11.80
2017-09-14T12:08:55.522Z,11.70
2017-09-14T12:11:23.041Z,11.40
2017-09-14T12:13:50.585Z,11.40
2017-09-14T12:16:18.862Z,11.20
2017-09-14T12:18:47.157Z,11.20
2017-09-14T12:21:14.689Z,11.10
2017-09-14T12:23:42.983Z,11.30
2017-09-14T12:26:11.415Z,11.20
2017-09-14T12:28:38.943Z,11.30
2017-09-14T12:31:06.458Z,11.30
2017-09-14T12:33:34.766Z,11.40
2017-09-14T12:36:02.287Z,11.40
2017-09-14T12:38:29.830Z,11.50
2017-09-14T12:40:57.354Z,11.60
2017-09-14T12:43:24.890Z,11.70
2017-09-14T12:45:55.541Z,11.90
2017-09-14T12:48:23.073Z,11.80
2017-09-14T12:50:54.125Z,11.60
2017-09-14T12:53:21.649Z,11.70
2017-09-14T12:55:49.149Z,11.80
2017-09-14T12:58:16.674Z,11.80
2017-09-14T13:00:44.174Z,12.10
2017-09-14T13:03:11.707Z,12.20
2017-09-14T13:05:39.213Z,12.00
2017-09-14T13:08:06.770Z,12.10
2017-09-14T13:10:34.319Z,12.00
2017-09-14T13:13:01.873Z,12.00
2017-09-14T13:15:29.414Z,12.10
2017-09-14T13:17:56.967Z,12.10
2017-09-14T13:20:24.529Z,12.00
2017-09-14T13:22:52.098Z,12.10
2017-09-14T13:25:19.626Z,12.20
2017-09-14T13:27:47.185Z,12.00
2017-09-14T13:30:15.498Z,12.30
2017-09-14T13:32:43.063Z,12.20
2017-09-14T13:35:10.616Z,12.30
2017-09-14T13:37:38.165Z,12.30
2017-09-14T13:40:05.713Z,12.50
2017-09-14T13:42:33.297Z,12.60
2017-09-14T13:45:00.837Z,12.50
2017-09-14T13:47:28.398Z,12.50
2017-09-14T13:50:05.683Z,12.70
2017-09-14T13:52:33.232Z,12.80
2017-09-14T13:55:01.546Z,12.60
2017-09-14T13:57:29.084Z,12.50
2017-09-14T13:59:56.649Z,12.30
2017-09-14T14:02:24.261Z,12.20
2017-09-14T14:04:51.781Z,12.10
2017-09-14T14:07:19.330Z,12.30
2017-09-14T14:09:46.853Z,12.50
2017-09-14T14:12:15.165Z,12.70
2017-09-14T14:14:42.699Z,12.60
2017-09-14T14:17:10.257Z,12.70
2017-09-14T14:19:37.791Z,12.70
2017-09-14T14:22:06.097Z,12.40
2017-09-14T14:24:33.613Z,12.40
2017-09-14T14:27:01.142Z,12.40
2017-09-14T14:29:28.673Z,12.40
2017-09-14T14:31:56.245Z,12.30
2017-09-14T14:34:23.817Z,12.10
2017-09-14T14:36:51.381Z,11.90
2017-09-14T14:39:18.923Z,11.90
2017-09-14T14:41:46.467Z,11.90
2017-09-14T14:44:13.993Z,12.20
2017-09-14T14:46:41.530Z,12.30
2017-09-14T14:49:09.058Z,12.20
2017-09-14T14:51:37.357Z,12.30
2017-09-14T14:54:04.894Z,12.30
2017-09-14T14:56:32.442Z,12.20
2017-09-14T14:58:59.984Z,12.30
2017-09-14T15:01:34.044Z,12.20
2017-09-14T15:04:01.579Z,12.20
2017-09-14T15:06:29.129Z,12.20
2017-09-14T15:08:56.682Z,12.30
2017-09-14T15:11:24.220Z,12.50
2017-09-14T15:13:52.544Z,12.40
2017-09-14T15:16:20.084Z,12.30
2017-09-14T15:18:47.657Z,12.40
2017-09-14T15:21:15.187Z,12.40
2017-09-14T15:23:42.727Z,12.40
2017-09-14T15:26:11.014Z,12.20
2017-09-14T15:28:38.543Z,12.20
2017-09-14T15:31:06.097Z,12.20
2017-09-14T15:33:33.631Z,12.00
2017-09-14T15:36:01.139Z,12.10
2017-09-14T15:38:35.061Z,12.20
2017-09-14T15:41:08.908Z,12.10
2017-09-14T15:43:42.109Z,12.10
2017-09-14T15:46:09.651Z,12.10
2017-09-14T15:48:42.865Z,11.90
2017-09-14T15:51:15.969Z,11.90
2017-09-14T15:53:43.498Z,11.90
2017-09-14T15:56:11.056Z,11.80
2017-09-14T15:58:38.633Z,11.70
2017-09-14T16:01:12.121Z,11.60
2017-09-14T16:03:39.668Z,11.50
2017-09-14T16:06:07.198Z,11.70
2017-09-14T16:08:34.762Z,11.70
2017-09-14T16:11:02.306Z,11.50
2017-09-14T16:13:30.625Z,11.20
2017-09-14T16:15:58.151Z,11.10
2017-09-14T16:18:26.538Z,11.00
2017-09-14T16:20:54.071Z,10.90
2017-09-14T16:23:22.383Z,10.90
2017-09-14T16:25:49.911Z,10.80
2017-09-14T16:28:18.213Z,10.90
2017-09-14T16:30:45.743Z,10.90
2017-09-14T16:33:14.033Z,10.80
2017-09-14T16:35:42.313Z,10.70
2017-09-14T16:38:09.870Z,10.60
2017-09-14T16:40:37.386Z,10.70
2017-09-14T16:43:04.915Z,10.70
2017-09-14T16:45:32.416Z,10.60
2017-09-14T16:47:59.945Z,10.70
2017-09-14T16:50:27.464Z,10.70
2017-09-14T16:52:54.993Z,10.60
2017-09-14T16:55:22.522Z,10.60
2017-09-14T16:57:50.082Z,10.70
2017-09-14T17:00:21.321Z,10.60
2017-09-14T17:02:48.849Z,10.50
2017-09-14T17:05:19.688Z,10.50
2017-09-14T17:07:47.236Z,10.50
2017-09-14T17:10:14.813Z,10.40
2017-09-14T17:12:42.354Z,10.40
2017-09-14T17:15:09.915Z,10.40
2017-09-14T17:17:38.206Z,10.20
2017-09-14T17:20:05.727Z,10.20
2017-09-14T17:22:33.254Z,10.20
2017-09-14T17:25:00.774Z,10.20
2017-09-14T17:27:28.298Z,10.10
2017-09-14T17:29:55.812Z,10.00
2017-09-14T17:32:23.349Z,10.00
2017-09-14T17:34:50.861Z,10.00
2017-09-14T17:37:18.387Z,9.90
2017-09-14T17:39:45.885Z,9.90
2017-09-14T17:42:13.411Z,9.90
2017-09-14T17:44:40.920Z,9.90
2017-09-14T17:47:09.218Z,9.90
2017-09-14T17:49:36.732Z,9.80
2017-09-14T17:52:04.261Z,9.80
2017-09-14T17:54:31.761Z,9.80
2017-09-14T17:56:59.297Z,9.80
2017-09-14T17:59:26.861Z,9.70
2017-09-14T18:01:54.430Z,9.60
2017-09-14T18:04:21.969Z,9.60
2017-09-14T18:06:49.534Z,9.60
2017-09-14T18:09:17.033Z,9.70
2017-09-14T18:11:45.321Z,9.80
2017-09-14T18:14:12.842Z,9.70
2017-09-14T18:16:51.449Z,9.70
2017-09-14T18:25:19.357Z,9.70
2017-09-14T18:30:48.403Z,9.70
2017-09-14T18:33:16.023Z,9.80
2017-09-14T18:35:43.641Z,9.80
2017-09-14T18:38:11.264Z,9.70
2017-09-14T18:40:38.913Z,9.70
2017-09-14T18:43:06.504Z,9.70
2017-09-14T18:45:34.141Z,9.70
2017-09-14T18:48:01.728Z,9.80
2017-09-14T18:50:29.346Z,9.80
2017-09-14T18:52:57.611Z,9.80
2017-09-14T18:55:25.239Z,9.80
2017-09-14T18:57:52.853Z,9.90
2017-09-14T19:00:22.595Z,9.90
2017-09-14T19:02:50.176Z,9.90
2017-09-14T19:05:17.751Z,9.90
2017-09-14T19:07:45.335Z,10.00
2017-09-14T19:10:12.912Z,10.00
2017-09-14T19:12:41.263Z,10.10
2017-09-14T19:15:08.819Z,10.10
2017-09-14T19:17:36.387Z,10.10
2017-09-14T19:20:03.950Z,10.10
2017-09-14T19:22:31.571Z,10.10
2017-09-14T19:24:59.134Z,10.10
2017-09-14T19:27:26.789Z,10.20
2017-09-14T19:29:55.719Z,10.20
2017-09-14T19:32:23.336Z,10.20
2017-09-14T19:34:52.884Z,10.20
2017-09-14T19:37:21.254Z,10.20
2017-09-14T19:39:48.901Z,10.20
2017-09-14T19:42:16.604Z,10.10
2017-09-14T19:44:44.265Z,10.00
2017-09-14T19:47:11.924Z,10.00
2017-09-14T19:49:40.397Z,10.00
2017-09-14T19:52:08.069Z,9.90
2017-09-14T19:54:36.536Z,9.90
2017-09-14T19:57:04.181Z,9.80
2017-09-14T19:59:31.895Z,9.80
2017-09-14T20:01:59.641Z,9.80
2017-09-14T20:04:28.135Z,9.80
2017-09-14T20:06:56.593Z,9.90
2017-09-14T20:09:25.020Z,9.90
2017-09-14T20:11:52.771Z,9.80
2017-09-14T20:14:20.464Z,9.90
2017-09-14T20:16:48.236Z,9.90
2017-09-14T20:19:15.971Z,10.00
2017-09-14T20:21:43.659Z,10.00
2017-09-14T20:24:11.366Z,10.10
2017-09-14T20:26:39.046Z,10.10
2017-09-14T20:29:06.666Z,10.20
2017-09-14T20:31:34.199Z,10.20
2017-09-14T20:34:01.766Z,10.10
2017-09-14T20:36:29.306Z,10.10
2017-09-14T20:38:56.859Z,10.10
2017-09-14T20:41:24.390Z,10.10
2017-09-14T20:43:52.961Z,10.10
2017-09-14T20:46:22.282Z,10.00
2017-09-14T20:48:49.821Z,9.90
2017-09-14T20:51:17.384Z,10.00
2017-09-14T20:53:44.985Z,9.90
2017-09-14T20:56:13.552Z,9.80
2017-09-14T20:58:41.090Z,9.80
2017-09-14T21:01:09.394Z,9.90
2017-09-14T21:03:36.946Z,9.80
2017-09-14T21:06:04.498Z,9.80
2017-09-14T21:08:32.051Z,9.80
2017-09-14T21:10:59.582Z,9.80
2017-09-14T21:13:27.154Z,9.80
2017-09-14T21:15:54.662Z,9.80
2017-09-14T21:18:22.229Z,9.80
2017-09-14T21:20:49.821Z,9.80
2017-09-14T21:23:17.365Z,9.80
2017-09-14T21:25:53.243Z,9.70
2017-09-14T21:28:21.583Z,9.70
2017-09-14T21:30:49.115Z,9.60
2017-09-14T21:33:16.714Z,9.70
2017-09-14T21:35:44.275Z,9.60
2017-09-14T21:38:11.831Z,9.60
2017-09-14T21:40:39.367Z,9.60
2017-09-14T21:43:06.962Z,9.60
2017-09-14T21:45:34.532Z,9.50
2017-09-14T21:48:02.883Z,9.60
2017-09-14T21:50:30.454Z,9.50
2017-09-14T21:52:58.015Z,9.50
2017-09-14T21:55:25.563Z,9.50
2017-09-14T21:57:54.180Z,9.50
2017-09-14T22:00:22.473Z,9.50
2017-09-14T22:02:50.011Z,9.40
2017-09-14T22:05:19.338Z,9.60
2017-09-14T22:07:46.942Z,9.50
2017-09-14T22:10:14.495Z,9.70
2017-09-14T22:12:42.052Z,9.80
2017-09-14T22:15:09.662Z,9.80
2017-09-14T22:17:37.198Z,9.90
2017-09-14T22:20:04.798Z,9.90
2017-09-14T22:22:32.337Z,10.00
2017-09-14T22:24:59.869Z,9.90
2017-09-14T22:27:27.458Z,9.90
2017-09-14T22:29:55.759Z,10.00
2017-09-14T22:32:23.314Z,9.90
2017-09-14T22:34:53.876Z,10.00
2017-09-14T22:37:21.414Z,10.00
2017-09-14T22:39:48.962Z,10.00
2017-09-14T22:42:16.489Z,10.00
2017-09-14T22:44:50.540Z,9.90
2017-09-14T22:47:18.069Z,9.70
2017-09-14T22:49:45.614Z,9.80
2017-09-14T22:52:13.931Z,9.80
2017-09-14T22:54:41.534Z,9.70
2017-09-14T22:57:09.050Z,9.80
2017-09-14T22:59:36.603Z,9.80
2017-09-14T23:02:04.153Z,9.80
2017-09-14T23:04:33.655Z,9.80
2017-09-14T23:07:01.214Z,9.80
2017-09-14T23:09:28.744Z,9.80
2017-09-14T23:11:57.051Z,9.80
2017-09-14T23:14:26.570Z,9.70
2017-09-14T23:16:54.138Z,9.60
2017-09-14T23:19:21.671Z,9.50
2017-09-14T23:21:49.239Z,9.50
2017-09-14T23:24:16.830Z,9.60
2017-09-14T23:26:44.366Z,9.50
2017-09-14T23:29:11.924Z,9.50
2017-09-14T23:31:39.461Z,9.60
2017-09-14T23:34:07.836Z,9.60
2017-09-14T23:36:36.102Z,9.80
2017-09-14T23:39:03.640Z,9.70
2017-09-14T23:41:31.202Z,9.80
2017-09-14T23:43:58.754Z,9.90
2017-09-14T23:46:26.270Z,9.90
2017-09-14T23:48:53.814Z,9.90
2017-09-14T23:51:21.414Z,10.00
2017-09-14T23:53:48.985Z,10.00
2017-09-14T23:56:16.579Z,10.00
2017-09-14T23:58:44.134Z,10.00
